Time;durP1;ratioP1;P1;durP2;ratioP2;P2;SDS_P1;SDS_P2;PMS_P1;PMS_P2;Temp;Humidity;BMP_temperature;BMP_pressure;BME280_temperature;BME280_humidity;BME280_pressure;Samples;Min_cycle;Max_cycle;Signal;HPM_P1;HPM_P2
2023/02/23 08:27:12;;;;;;;;;29.75;26.75;;;;;9.79;100.00;101307.81;4835804;29;50042;-68
2023/02/23 08:29:38;;;;;;;;;35.25;31.75;;;;;9.75;100.00;101296.34;4869922;29;50496;-69
2023/02/23 08:32:04;;;;;;;;;39.25;31.75;;;;;8.56;100.00;101127.28;4874604;29;50295;-69
2023/02/23 08:34:29;;;;;;;;;32.25;30.25;;;;;9.64;100.00;101255.75;4876451;29;50757;-73
2023/02/23 08:36:55;;;;;;;;;26.00;24.75;;;;;8.98;100.00;101145.31;4878081;29;49861;-71
2023/02/23 08:39:20;;;;;;;;;28.75;25.75;;;;;9.98;100.00;101323.28;4877565;29;49710;-74
2023/02/23 08:41:46;;;;;;;;;24.00;22.75;;;;;9.15;100.00;101199.13;4889968;29;49874;-68
2023/02/23 08:44:11;;;;;;;;;24.50;22.00;;;;;10.30;100.00;101352.31;4897857;29;50784;-72
2023/02/23 08:46:37;;;;;;;;;29.00;25.00;;;;;10.05;100.00;101306.03;4887173;29;50178;-68
2023/02/23 08:49:05;;;;;;;;;31.50;29.25;;;;;9.99;100.00;101285.72;4894399;29;50085;-68
2023/02/23 08:51:33;;;;;;;;;36.25;31.25;;;;;10.06;100.00;101307.81;4894022;29;50845;-75
2023/02/23 08:54:00;;;;;;;;;30.75;28.25;;;;;9.59;100.00;101252.09;4878902;29;50702;-65
2023/02/23 08:56:25;;;;;;;;;33.25;26.25;;;;;10.04;100.00;101327.84;4885349;29;49935;-71
2023/02/23 08:58:51;;;;;;;;;30.00;25.75;;;;;10.18;100.00;101331.78;4882791;29;49868;-71
2023/02/23 09:01:20;;;;;;;;;28.50;23.50;;;;;10.08;100.00;101311.38;4889063;29;49303;-77
2023/02/23 09:03:46;;;;;;;;;25.00;25.00;;;;;10.14;100.00;101303.69;4885344;29;50968;-76
2023/02/23 09:06:15;;;;;;;;;34.00;26.00;;;;;10.55;100.00;101362.72;4895862;29;49595;-67
2023/02/23 09:08:41;;;;;;;;;30.50;26.25;;;;;9.93;100.00;101314.38;4895627;29;49860;-73
2023/02/23 09:11:06;;;;;;;;;26.75;22.25;;;;;9.27;100.00;101227.47;4895732;29;49942;-68
2023/02/23 09:13:31;;;;;;;;;33.25;27.00;;;;;9.45;100.00;101232.41;4895563;29;49752;-67
2023/02/23 09:15:57;;;;;;;;;28.75;25.00;;;;;10.18;100.00;101378.13;4895648;29;49772;-68
2023/02/23 09:18:22;;;;;;;;;33.75;30.25;;;;;10.04;100.00;101348.84;4887244;29;49677;-71
2023/02/23 09:20:48;;;;;;;;;27.50;23.25;;;;;10.25;100.00;101382.78;4895725;29;50022;-69
2023/02/23 09:23:14;;;;;;;;;24.50;21.50;;;;;10.10;100.00;101349.03;4895371;29;51119;-68
2023/02/23 09:25:43;;;;;;;;;22.50;22.50;;;;;10.43;100.00;101366.72;4866838;29;49708;-73
2023/02/23 09:28:11;;;;;;;;;24.50;23.00;;;;;10.38;100.00;101363.94;4877256;29;50216;-69
2023/02/23 09:30:38;;;;;;;;;28.25;27.50;;;;;10.00;100.00;101297.09;4877147;29;50061;-70
2023/02/23 09:33:03;;;;;;;;;28.75;23.50;;;;;10.27;100.00;101370.59;4883070;29;49914;-71
2023/02/23 09:35:28;;;;;;;;;26.50;23.25;;;;;9.74;100.00;101263.06;4878834;29;50278;-74
2023/02/23 09:37:55;;;;;;;;;28.50;27.50;;;;;10.67;100.00;101400.69;4887200;29;49786;-76
2023/02/23 09:40:28;;;;;;;;;30.00;25.00;;;;;10.54;100.00;101381.06;4895220;29;49977;-69
2023/02/23 09:43:15;;;;;;;;;24.75;22.75;;;;;10.17;100.00;101318.63;4895010;29;49780;-69
2023/02/23 09:46:17;;;;;;;;;32.50;29.50;;;;;10.25;100.00;101338.16;4889418;29;49841;-69
2023/02/23 09:48:43;;;;;;;;;27.00;26.50;;;;;9.18;100.00;101195.72;4885607;29;49814;-70
2023/02/23 09:51:16;;;;;;;;;26.75;22.75;;;;;10.57;100.00;101396.91;4889745;29;50084;-70
2023/02/23 09:53:46;;;;;;;;;23.25;23.00;;;;;10.28;100.00;101328.66;4893372;29;53093;-69
2023/02/23 09:56:24;;;;;;;;;27.50;25.25;;;;;10.75;100.00;101400.09;4894687;29;49871;-69
2023/02/23 09:58:49;;;;;;;;;26.75;25.75;;;;;10.84;100.00;101407.34;4885379;29;49823;-70
2023/02/23 10:01:47;;;;;;;;;26.00;23.50;;;;;10.27;100.00;101328.59;4877358;29;49907;-70
2023/02/23 10:04:24;;;;;;;;;24.50;21.75;;;;;10.86;100.00;101382.03;4854155;29;49986;-73
2023/02/23 10:07:24;;;;;;;;;29.50;21.00;;;;;10.74;100.00;101384.28;4876476;29;49839;-71
2023/02/23 10:10:10;;;;;;;;;29.50;25.75;;;;;10.80;100.00;101394.97;4889167;29;50000;-75
2023/02/23 10:12:49;;;;;;;;;31.25;26.00;;;;;10.76;100.00;101385.22;4894891;29;50305;-70
2023/02/23 10:15:26;;;;;;;;;20.00;18.75;;;;;10.31;100.00;101320.84;4894438;29;50109;-75
2023/02/23 10:18:08;;;;;;;;;27.75;25.75;;;;;10.47;100.00;101347.59;4875184;29;49886;-72
2023/02/23 10:20:45;;;;;;;;;26.50;22.75;;;;;10.71;100.00;101394.69;4876556;29;49710;-69
2023/02/23 10:23:20;;;;;;;;;26.25;24.75;;;;;10.37;100.00;101338.53;4878903;29;49905;-69
2023/02/23 10:25:49;;;;;;;;;21.25;20.75;;;;;10.35;100.00;101315.72;4893698;29;50762;-75
2023/02/23 10:28:19;;;;;;;;;20.25;18.75;;;;;9.60;100.00;101211.94;4894444;29;49962;-69
2023/02/23 10:30:44;;;;;;;;;24.00;21.75;;;;;10.37;100.00;101333.28;4894693;29;49840;-75
2023/02/23 10:33:26;;;;;;;;;25.00;21.00;;;;;10.75;100.00;101359.81;4893096;29;49579;-70
2023/02/23 10:35:59;;;;;;;;;24.25;21.00;;;;;10.70;100.00;101343.91;4870224;29;50074;-70
2023/02/23 10:38:24;;;;;;;;;24.50;21.50;;;;;11.02;100.00;101380.75;4876518;29;49974;-70
2023/02/23 10:40:54;;;;;;;;;23.25;22.50;;;;;10.72;100.00;101326.47;4895090;29;50276;-69
2023/02/23 10:43:19;;;;;;;;;18.00;17.75;;;;;11.04;100.00;101358.03;4878983;29;49951;-71
2023/02/23 10:45:48;;;;;;;;;25.00;20.50;;;;;11.15;100.00;101374.97;4888742;29;50425;-77
2023/02/23 10:48:23;;;;;;;;;26.25;21.25;;;;;10.97;100.00;101345.56;4882466;29;49880;-73
2023/02/23 10:50:52;;;;;;;;;22.50;20.75;;;;;11.10;100.00;101368.72;4894547;29;49874;-70
2023/02/23 10:53:22;;;;;;;;;25.75;21.25;;;;;10.70;100.00;101343.00;4894684;29;49662;-69
2023/02/23 10:56:13;;;;;;;;;27.25;25.75;;;;;11.05;100.00;101397.47;4893594;29;51300;-70
2023/02/23 10:58:48;;;;;;;;;26.50;24.50;;;;;11.20;100.00;101386.53;4889062;29;49820;-70
2023/02/23 11:01:43;;;;;;;;;30.50;27.75;;;;;11.20;100.00;101389.16;4894725;29;49773;-75
2023/02/23 11:04:27;;;;;;;;;29.75;25.75;;;;;11.16;100.00;101382.91;4879961;29;49932;-68
2023/02/23 11:07:30;;;;;;;;;25.75;21.75;;;;;11.18;100.00;101394.34;4893747;29;49842;-79
2023/02/23 11:09:57;;;;;;;;;26.50;26.50;;;;;11.21;100.00;101350.63;4861658;29;50645;-73
2023/02/23 11:12:24;;;;;;;;;31.00;30.50;;;;;11.35;100.00;101381.66;4882388;29;49885;-77
2023/02/23 11:14:52;;;;;;;;;39.50;35.00;;;;;11.21;100.00;101351.50;4893802;29;49920;-72
2023/02/23 11:17:29;;;;;;;;;32.25;27.50;;;;;11.24;100.00;101355.94;4894106;29;49939;-71
2023/02/23 11:20:06;;;;;;;;;25.25;23.50;;;;;11.09;100.00;101319.63;4892958;29;49947;-70
2023/02/23 11:22:36;;;;;;;;;28.25;24.00;;;;;11.26;100.00;101342.00;4909360;29;49390;-74
2023/02/23 11:25:14;;;;;;;;;12.25;11.75;;;;;11.46;100.00;101360.94;4885782;29;49770;-86
2023/02/23 11:27:45;;;;;;;;;14.00;12.00;;;;;11.02;100.00;101268.66;4891959;29;50394;-83
2023/02/23 11:30:12;;;;;;;;;20.75;18.75;;;;;10.84;100.00;101231.38;4888576;29;50222;-71
2023/02/23 11:32:41;;;;;;;;;12.00;11.00;;;;;10.81;100.00;101240.06;4899495;29;49834;-71
2023/02/23 11:35:21;;;;;;;;;16.00;15.75;;;;;10.88;100.00;101220.97;4895479;29;49652;-74
2023/02/23 11:37:47;;;;;;;;;16.75;16.50;;;;;11.09;100.00;101265.31;4875714;29;49793;-68
2023/02/23 11:40:25;;;;;;;;;20.50;16.50;;;;;10.72;100.00;101189.03;4884311;29;50103;-69
2023/02/23 11:42:52;;;;;;;;;19.25;18.75;;;;;11.73;100.00;101363.41;4885443;29;49767;-71
2023/02/23 11:45:19;;;;;;;;;20.00;17.25;;;;;10.59;100.00;101172.03;4880365;29;50019;-70
2023/02/23 11:47:51;;;;;;;;;19.75;19.75;;;;;11.68;100.00;101378.19;4899101;29;49713;-71
2023/02/23 11:50:27;;;;;;;;;18.75;16.75;;;;;10.11;100.00;101098.97;4888046;29;49828;-74
2023/02/23 11:52:58;;;;;;;;;19.00;15.25;;;;;11.26;100.00;101299.94;4876460;29;49959;-73
2023/02/23 11:55:24;;;;;;;;;23.50;18.00;;;;;9.84;100.00;101082.44;4884040;29;49786;-76
2023/02/23 11:57:52;;;;;;;;;20.00;18.50;;;;;11.42;100.00;101323.16;4889207;29;51153;-70
2023/02/23 12:00:26;;;;;;;;;15.00;13.50;;;;;11.24;100.00;101313.91;4876991;29;50115;-84
2023/02/23 12:02:57;;;;;;;;;18.25;16.25;;;;;11.68;100.00;101352.78;4890468;29;49970;-75
2023/02/23 12:05:31;;;;;;;;;22.00;15.25;;;;;11.86;100.00;101344.47;4874856;29;49819;-71
2023/02/23 12:07:56;;;;;;;;;19.25;16.50;;;;;11.96;100.00;101349.09;4882300;29;50956;-69
2023/02/23 12:10:41;;;;;;;;;18.25;18.00;;;;;11.91;100.00;101341.97;4875563;29;50062;-76
2023/02/23 12:13:25;;;;;;;;;19.00;16.00;;;;;11.93;100.00;101340.25;4882355;29;49801;-70
2023/02/23 12:16:07;;;;;;;;;20.50;19.50;;;;;11.88;100.00;101312.97;4891241;29;50052;-70
2023/02/23 12:18:53;;;;;;;;;17.25;16.50;;;;;11.52;100.00;101253.31;4885296;29;50691;-87
2023/02/23 12:21:47;;;;;;;;;16.75;16.75;;;;;11.99;100.00;101338.66;4880744;29;49547;-87
2023/02/23 12:24:36;;;;;;;;;17.25;16.50;;;;;11.50;100.00;101228.72;4887727;29;49814;-71
2023/02/23 12:27:15;;;;;;;;;18.25;16.75;;;;;10.47;100.00;101066.72;4878717;29;49806;-71
2023/02/23 12:29:49;;;;;;;;;18.00;16.50;;;;;12.25;100.00;101336.63;4879339;29;49804;-70
2023/02/23 12:32:23;;;;;;;;;20.50;19.25;;;;;10.97;100.00;101141.53;4876814;29;50026;-70
2023/02/23 12:34:52;;;;;;;;;20.00;18.25;;;;;11.91;100.00;101274.44;4875533;29;49804;-71
2023/02/23 12:37:38;;;;;;;;;17.25;16.25;;;;;12.08;100.00;101327.47;4876284;29;49797;-77
2023/02/23 12:40:17;;;;;;;;;19.25;16.25;;;;;11.76;100.00;101277.56;4873334;29;50633;-86
2023/02/23 12:42:51;;;;;;;;;17.00;17.00;;;;;12.23;100.00;101333.09;4875496;29;50170;-71
2023/02/23 12:45:54;;;;;;;;;16.75;15.75;;;;;11.87;100.00;101279.59;4876131;29;49580;-78
2023/02/23 12:48:23;;;;;;;;;20.50;16.25;;;;;12.29;100.00;101332.34;4875558;29;49857;-73
2023/02/23 12:50:55;;;;;;;;;16.25;15.25;;;;;11.27;100.00;101151.91;4875975;29;50198;-85
2023/02/23 12:53:36;;;;;;;;;20.75;17.75;;;;;11.55;100.00;101221.81;4874907;29;49956;-74
2023/02/23 12:56:26;;;;;;;;;18.50;16.75;;;;;12.57;100.00;101336.50;4868253;29;49735;-74
2023/02/23 12:59:16;;;;;;;;;19.25;19.00;;;;;12.56;100.00;101343.50;4877435;29;49747;-69
2023/02/23 13:01:50;;;;;;;;;20.75;15.75;;;;;12.56;100.00;101340.88;4874837;29;50093;-80
2023/02/23 13:04:49;;;;;;;;;20.75;15.75;;;;;12.59;100.00;101332.13;4879671;29;50066;-70
2023/02/23 13:07:43;;;;;;;;;14.75;13.75;;;;;12.19;100.00;101269.81;4866501;29;49635;-79
2023/02/23 13:10:52;;;;;;;;;19.25;18.00;;;;;12.49;100.00;101343.31;4878712;29;50128;-69
2023/02/23 13:13:42;;;;;;;;;14.25;14.00;;;;;12.46;100.00;101330.09;4857904;29;49779;-77
2023/02/23 13:16:23;;;;;;;;;16.50;15.00;;;;;11.70;100.00;101258.13;4877360;29;49857;-74
2023/02/23 13:18:59;;;;;;;;;19.50;17.00;;;;;12.25;100.00;101349.78;4881507;29;49806;-69
2023/02/23 13:21:32;;;;;;;;;17.75;17.75;;;;;12.24;100.00;101329.59;4876952;29;50172;-69
2023/02/23 13:24:06;;;;;;;;;20.75;16.75;;;;;12.16;100.00;101348.69;4876961;29;51293;-70
2023/02/23 13:26:34;;;;;;;;;15.25;14.00;;;;;12.17;100.00;101324.19;4877491;29;49964;-70
2023/02/23 13:29:11;;;;;;;;;21.25;18.00;;;;;12.29;100.00;101325.34;4876910;29;49765;-73
2023/02/23 13:31:39;;;;;;;;;14.25;14.25;;;;;12.39;100.00;101318.53;4879398;29;49794;-86
2023/02/23 13:34:11;;;;;;;;;18.25;18.25;;;;;11.97;100.00;101244.78;4875117;29;49805;-78
2023/02/23 13:36:39;;;;;;;;;23.25;19.75;;;;;11.73;100.00;101159.13;4876419;29;50992;-72
2023/02/23 13:39:34;;;;;;;;;23.25;22.25;;;;;11.24;100.00;101093.16;4875197;29;49875;-70
2023/02/23 13:42:08;;;;;;;;;17.00;16.25;;;;;12.59;100.00;101304.06;4883290;29;49840;-73
2023/02/23 13:44:39;;;;;;;;;20.50;18.25;;;;;12.58;100.00;101299.63;4889019;29;52616;-70
2023/02/23 13:47:09;;;;;;;;;26.25;19.50;;;;;12.66;100.00;101322.63;4890851;29;49520;-69
2023/02/23 13:49:48;;;;;;;;;17.50;14.00;;;;;12.56;100.00;101256.59;4890886;29;49364;-78
2023/02/23 13:52:41;;;;;;;;;15.75;14.50;;;;;12.40;100.00;101233.41;4889657;29;49843;-67
2023/02/23 13:55:24;;;;;;;;;27.25;21.25;;;;;12.75;100.00;101309.66;4893905;29;49890;-65
2023/02/23 13:58:01;;;;;;;;;20.25;20.25;;;;;12.64;100.00;101290.06;4886978;29;49560;-70
2023/02/23 14:00:28;;;;;;;;;21.75;21.25;;;;;12.61;100.00;101315.50;4887646;29;49731;-67
2023/02/23 14:02:53;;;;;;;;;18.00;18.00;;;;;12.20;100.00;101245.28;4896263;29;49471;-69
2023/02/23 14:05:23;;;;;;;;;19.00;19.00;;;;;12.44;100.00;101301.06;4901937;29;50908;-66
2023/02/23 14:07:55;;;;;;;;;19.25;18.50;;;;;11.57;100.00;101185.03;4909595;29;49892;-65
2023/02/23 14:10:28;;;;;;;;;21.00;16.50;;;;;12.29;100.00;101282.31;4886382;29;49872;-69
2023/02/23 14:13:24;;;;;;;;;24.50;18.75;;;;;12.14;100.00;101259.16;4893197;29;49695;-66
2023/02/23 14:16:13;;;;;;;;;22.00;21.25;;;;;12.51;100.00;101296.84;4886729;29;50393;-66
2023/02/23 14:19:15;;;;;;;;;22.00;20.25;;;;;12.19;100.00;101256.66;4897446;29;49707;-69
2023/02/23 14:22:18;;;;;;;;;22.75;16.50;;;;;12.30;100.00;101263.03;4895343;29;49636;-79
2023/02/23 14:24:43;;;;;;;;;24.75;19.25;;;;;12.11;100.00;101229.28;4861629;29;50025;-68
2023/02/23 14:27:42;;;;;;;;;22.25;18.00;;;;;12.54;100.00;101303.03;4879602;29;50281;-69
2023/02/23 14:30:10;;;;;;;;;20.50;17.00;;;;;12.61;100.00;101297.06;4846727;29;49920;-79
2023/02/23 14:32:42;;;;;;;;;22.50;18.75;;;;;11.88;100.00;101169.16;4886483;29;49691;-79
2023/02/23 14:35:32;;;;;;;;;17.75;16.50;;;;;12.55;100.00;101289.06;4885409;29;49657;-65
2023/02/23 14:38:08;;;;;;;;;17.75;17.75;;;;;12.35;100.00;101227.16;4883549;29;49784;-65
2023/02/23 14:40:39;;;;;;;;;14.00;14.00;;;;;12.48;100.00;101267.81;4880936;29;49951;-65
2023/02/23 14:43:37;;;;;;;;;23.00;17.75;;;;;12.58;100.00;101289.09;4878587;29;49743;-66
2023/02/23 14:46:10;;;;;;;;;16.25;15.00;;;;;12.17;100.00;101248.72;4876254;29;50068;-66
2023/02/23 14:48:40;;;;;;;;;16.25;15.25;;;;;12.36;100.00;101301.78;4877619;29;49829;-65
2023/02/23 14:51:27;;;;;;;;;17.75;14.75;;;;;12.23;100.00;101274.28;4880339;29;49945;-65
2023/02/23 14:53:56;;;;;;;;;14.75;14.75;;;;;12.13;100.00;101235.44;4887834;29;49697;-66
2023/02/23 14:56:23;;;;;;;;;14.00;13.50;;;;;12.30;100.00;101299.91;4887834;29;49621;-68
2023/02/23 14:58:52;;;;;;;;;22.00;19.00;;;;;12.29;100.00;101277.06;4892220;29;50325;-64
2023/02/23 15:01:38;;;;;;;;;17.25;15.75;;;;;11.78;100.00;101206.59;4888937;29;49486;-64
2023/02/23 15:04:10;;;;;;;;;14.25;12.25;;;;;12.31;100.00;101280.63;4886869;29;49799;-66
2023/02/23 15:06:37;;;;;;;;;10.50;10.50;;;;;12.30;100.00;101271.81;4892432;29;49694;-66
2023/02/23 15:09:05;;;;;;;;;20.50;15.00;;;;;11.77;100.00;101183.75;4878153;29;50018;-65
2023/02/23 15:11:31;;;;;;;;;15.25;13.75;;;;;12.31;100.00;101293.78;4879969;29;49791;-65
2023/02/23 15:13:57;;;;;;;;;15.50;15.50;;;;;12.23;100.00;101304.13;4865157;29;49488;-69
2023/02/23 15:16:28;;;;;;;;;11.00;11.00;;;;;11.63;100.00;101227.25;4887512;29;49779;-68
2023/02/23 15:19:29;;;;;;;;;14.00;12.75;;;;;12.15;100.00;101286.38;4889608;29;50777;-74
2023/02/23 15:21:57;;;;;;;;;11.75;11.75;;;;;12.15;100.00;101315.31;4884736;29;50143;-70
2023/02/23 15:24:41;;;;;;;;;15.75;13.50;;;;;10.92;100.00;101137.94;4882960;29;49989;-69
2023/02/23 15:27:16;;;;;;;;;13.25;12.25;;;;;11.54;100.00;101199.00;4890174;29;49643;-69
2023/02/23 15:29:41;;;;;;;;;15.75;14.25;;;;;12.12;100.00;101296.84;4886111;29;50549;-72
2023/02/23 15:32:19;;;;;;;;;18.00;15.75;;;;;12.12;100.00;101292.47;4888863;29;49676;-68
2023/02/23 15:34:45;;;;;;;;;16.25;14.50;;;;;11.97;100.00;101292.13;4889174;29;49626;-67
2023/02/23 15:37:25;;;;;;;;;15.00;11.75;;;;;11.80;100.00;101270.69;4889532;29;49405;-66
2023/02/23 15:40:15;;;;;;;;;20.50;18.75;;;;;11.66;100.00;101256.25;4890934;29;50271;-68
2023/02/23 15:42:50;;;;;;;;;15.00;13.00;;;;;11.26;100.00;101199.19;4886794;29;49614;-68
2023/02/23 15:45:29;;;;;;;;;16.25;13.75;;;;;11.40;100.00;101243.38;4889066;29;49475;-65
2023/02/23 15:47:58;;;;;;;;;18.50;14.50;;;;;11.81;100.00;101311.03;4888288;29;49777;-66
2023/02/23 15:50:34;;;;;;;;;19.50;17.50;;;;;11.51;100.00;101271.69;4890515;29;51452;-66
2023/02/23 15:53:12;;;;;;;;;18.75;12.75;;;;;11.38;100.00;101249.44;4889368;29;49517;-67
2023/02/23 15:55:40;;;;;;;;;16.50;15.00;;;;;11.39;100.00;101240.72;4883207;29;49730;-67
2023/02/23 15:58:20;;;;;;;;;16.00;15.50;;;;;11.76;100.00;101310.84;4880395;29;49803;-68
2023/02/23 16:01:10;;;;;;;;;21.75;19.00;;;;;11.69;100.00;101298.44;4879223;29;50702;-66
2023/02/23 16:03:42;;;;;;;;;18.25;15.25;;;;;11.67;100.00;101313.25;4886090;29;49680;-66
2023/02/23 16:06:25;;;;;;;;;21.25;18.75;;;;;11.10;100.00;101229.47;4886330;29;49931;-66
2023/02/23 16:09:19;;;;;;;;;24.75;17.25;;;;;11.60;100.00;101320.13;4885735;29;49781;-65
2023/02/23 16:11:47;;;;;;;;;17.50;15.75;;;;;11.01;100.00;101216.09;4885121;29;50518;-68
2023/02/23 16:14:16;;;;;;;;;14.75;12.50;;;;;11.50;100.00;101328.63;4883994;29;49761;-69
2023/02/23 16:16:45;;;;;;;;;15.75;14.25;;;;;11.00;100.00;101232.66;4881123;29;49744;-67
2023/02/23 16:19:13;;;;;;;;;14.00;14.00;;;;;11.39;100.00;101294.19;4881784;29;50387;-72
2023/02/23 16:21:39;;;;;;;;;14.75;14.75;;;;;11.18;100.00;101249.81;4879497;29;49931;-68
2023/02/23 16:24:09;;;;;;;;;14.75;14.00;;;;;11.51;100.00;101303.22;4877771;29;49796;-75
2023/02/23 16:26:52;;;;;;;;;16.75;15.75;;;;;11.31;100.00;101289.56;4864401;29;49794;-71
2023/02/23 16:29:27;;;;;;;;;15.50;15.00;;;;;10.93;100.00;101222.88;4866585;29;49711;-69
2023/02/23 16:32:01;;;;;;;;;20.00;19.00;;;;;10.47;100.00;101164.72;4869274;29;49881;-81
2023/02/23 16:34:35;;;;;;;;;16.50;16.50;;;;;11.56;100.00;101323.50;4883508;29;49941;-70
2023/02/23 16:37:24;;;;;;;;;20.25;18.00;;;;;11.37;100.00;101303.75;4872554;29;49733;-74
2023/02/23 16:39:50;;;;;;;;;17.25;15.75;;;;;11.40;100.00;101330.13;4878396;29;49637;-68
2023/02/23 16:42:21;;;;;;;;;25.75;24.00;;;;;11.34;100.00;101324.69;4873344;29;49929;-75
2023/02/23 16:44:46;;;;;;;;;22.75;22.75;;;;;10.92;100.00;101257.88;4862585;29;49818;-66
2023/02/23 16:47:46;;;;;;;;;32.75;30.00;;;;;11.34;100.00;101322.06;4888835;29;49635;-68
2023/02/23 16:50:17;;;;;;;;;14.00;14.00;;;;;11.31;100.00;101323.75;4875883;29;49703;-83
2023/02/23 16:52:50;;;;;;;;;19.75;19.75;;;;;11.31;100.00;101318.47;4866242;29;50900;-82
2023/02/23 16:55:17;;;;;;;;;20.25;18.25;;;;;10.91;100.00;101248.22;4879799;29;49354;-76
2023/02/23 16:57:48;;;;;;;;;19.75;18.00;;;;;10.82;100.00;101235.72;4888249;29;50007;-76
2023/02/23 17:00:21;;;;;;;;;24.50;16.75;;;;;11.26;100.00;101326.22;4884890;29;49359;-78
2023/02/23 17:02:47;;;;;;;;;19.50;18.50;;;;;10.94;100.00;101264.03;4873687;29;49778;-68
2023/02/23 17:05:14;;;;;;;;;19.75;17.00;;;;;11.02;100.00;101279.16;4866507;29;49799;-72
2023/02/23 17:07:40;;;;;;;;;18.00;18.00;;;;;10.97;100.00;101278.13;4863773;29;50291;-67
2023/02/23 17:10:07;;;;;;;;;19.00;17.75;;;;;11.18;100.00;101333.91;4876760;29;49599;-82
2023/02/23 17:12:33;;;;;;;;;19.50;17.00;;;;;10.49;100.00;101206.75;4876910;29;49691;-67
2023/02/23 17:14:58;;;;;;;;;13.75;13.75;;;;;10.95;100.00;101276.31;4876403;29;49657;-68
2023/02/23 17:17:24;;;;;;;;;21.75;21.50;;;;;10.84;100.00;101268.16;4878134;29;49850;-69
2023/02/23 17:19:49;;;;;;;;;26.00;20.75;;;;;11.00;100.00;101287.84;4864125;29;49917;-68
2023/02/23 17:22:14;;;;;;;;;21.25;18.50;;;;;10.59;100.00;101222.81;4862562;29;50687;-71
2023/02/23 17:24:42;;;;;;;;;16.50;16.00;;;;;11.13;100.00;101327.63;4862458;29;49676;-67
2023/02/23 17:27:08;;;;;;;;;17.00;17.00;;;;;11.12;100.00;101331.13;4879599;29;49726;-67
2023/02/23 17:29:33;;;;;;;;;22.50;22.25;;;;;10.50;100.00;101245.28;4877939;29;49902;-68
2023/02/23 17:32:00;;;;;;;;;22.75;21.50;;;;;10.88;100.00;101288.38;4883457;29;50223;-67
2023/02/23 17:34:26;;;;;;;;;22.50;21.25;;;;;10.96;100.00;101296.50;4879045;29;49903;-66
2023/02/23 17:36:52;;;;;;;;;24.25;23.25;;;;;10.81;100.00;101281.22;4888944;29;50133;-62
2023/02/23 17:39:17;;;;;;;;;30.00;26.25;;;;;10.75;100.00;101279.28;4890264;29;49871;-67
2023/02/23 17:41:43;;;;;;;;;26.50;22.25;;;;;10.10;100.00;101168.00;4889236;29;50729;-69
2023/02/23 17:44:08;;;;;;;;;29.25;23.25;;;;;10.84;100.00;101305.81;4877200;29;49848;-68
2023/02/23 17:46:34;;;;;;;;;25.00;23.50;;;;;10.79;100.00;101299.53;4871065;29;49960;-68
2023/02/23 17:49:00;;;;;;;;;22.50;21.00;;;;;10.96;100.00;101331.53;4879479;29;50031;-70
2023/02/23 17:51:26;;;;;;;;;22.50;22.50;;;;;10.44;100.00;101242.50;4885520;29;51233;-69
2023/02/23 17:53:51;;;;;;;;;29.75;25.00;;;;;10.60;100.00;101263.09;4892281;29;50051;-68
2023/02/23 17:56:18;;;;;;;;;27.00;26.75;;;;;10.66;100.00;101276.41;4893786;29;49929;-68
2023/02/23 17:58:44;;;;;;;;;17.00;17.00;;;;;10.70;100.00;101294.00;4893950;29;49740;-68
2023/02/23 18:01:10;;;;;;;;;24.75;20.75;;;;;10.74;100.00;101280.13;4893269;29;51580;-67
2023/02/23 18:03:36;;;;;;;;;23.00;23.00;;;;;10.65;100.00;101286.88;4893217;29;49822;-67
2023/02/23 18:06:12;;;;;;;;;28.25;23.25;;;;;10.09;100.00;101166.25;4893404;29;50079;-68
2023/02/23 18:08:40;;;;;;;;;24.25;22.00;;;;;11.06;100.00;101345.81;4893331;29;49829;-67
2023/02/23 18:11:06;;;;;;;;;28.25;24.50;;;;;10.67;100.00;101269.41;4893249;29;50067;-66
2023/02/23 18:13:32;;;;;;;;;28.25;27.25;;;;;10.42;100.00;101221.47;4893511;29;49704;-68
2023/02/23 18:16:17;;;;;;;;;23.75;21.25;;;;;10.93;100.00;101330.56;4893167;29;49874;-67
2023/02/23 18:18:44;;;;;;;;;23.50;19.75;;;;;10.74;100.00;101305.50;4893193;29;49837;-73
2023/02/23 18:21:12;;;;;;;;;24.50;22.50;;;;;9.92;100.00;101170.09;4892841;29;50860;-68
2023/02/23 18:23:38;;;;;;;;;26.00;24.50;;;;;10.57;100.00;101289.25;4880126;29;49934;-67
2023/02/23 18:26:10;;;;;;;;;28.50;28.50;;;;;10.77;100.00;101335.38;4874906;29;49779;-67
2023/02/23 18:28:37;;;;;;;;;22.75;20.25;;;;;10.62;100.00;101303.44;4874967;29;50019;-67
2023/02/23 18:31:03;;;;;;;;;15.50;14.75;;;;;10.88;100.00;101370.72;4874805;29;50659;-66
2023/02/23 18:33:30;;;;;;;;;22.25;19.00;;;;;9.35;100.00;101129.03;4875054;29;49998;-66
2023/02/23 18:35:56;;;;;;;;;24.25;21.50;;;;;10.95;100.00;101360.38;4875076;29;49881;-67
2023/02/23 18:38:21;;;;;;;;;36.00;34.75;;;;;10.55;100.00;101297.09;4874941;29;50055;-68
2023/02/23 18:40:46;;;;;;;;;33.75;32.25;;;;;9.43;100.00;101130.16;4874244;29;50363;-67
2023/02/23 18:43:14;;;;;;;;;38.50;34.50;;;;;10.78;100.00;101360.78;4874942;29;50100;-71
2023/02/23 18:45:39;;;;;;;;;27.75;23.25;;;;;10.47;100.00;101305.59;4875053;29;49875;-68
2023/02/23 18:48:12;;;;;;;;;35.25;31.50;;;;;10.53;100.00;101326.78;4884167;29;49923;-66
2023/02/23 18:50:38;;;;;;;;;28.75;26.50;;;;;10.44;100.00;101305.50;4892678;29;50530;-66
2023/02/23 18:53:05;;;;;;;;;38.75;27.00;;;;;10.40;100.00;101322.88;4892825;29;49698;-66
2023/02/23 18:55:31;;;;;;;;;32.25;28.25;;;;;10.31;100.00;101310.34;4892354;29;50077;-67
2023/02/23 18:57:56;;;;;;;;;43.00;36.25;;;;;10.65;100.00;101361.28;4892883;29;49991;-64
2023/02/23 19:00:22;;;;;;;;;33.00;28.00;;;;;10.55;100.00;101353.97;4892428;29;51063;-64
2023/02/23 19:02:48;;;;;;;;;38.50;35.75;;;;;10.64;100.00;101350.72;4892417;29;50155;-65
2023/02/23 19:05:16;;;;;;;;;44.00;37.75;;;;;10.62;100.00;101352.44;4891540;29;50156;-66
2023/02/23 19:07:41;;;;;;;;;42.00;36.50;;;;;10.65;100.00;101349.88;4892641;29;50334;-71
2023/02/23 19:10:10;;;;;;;;;56.25;40.75;;;;;10.56;100.00;101326.88;4891663;29;50960;-72
2023/02/23 19:12:37;;;;;;;;;87.67;68.67;;;;;10.51;100.00;101310.97;4892629;29;49835;-67
2023/02/23 19:15:06;;;;;;;;;45.50;34.50;;;;;10.46;100.00;101294.19;4885323;29;49904;-67
2023/02/23 19:17:31;;;;;;;;;37.50;32.25;;;;;10.51;100.00;101308.34;4875020;29;49961;-69
2023/02/23 19:19:59;;;;;;;;;54.00;45.75;;;;;10.56;100.00;101311.13;4874436;29;51596;-67
2023/02/23 19:22:26;;;;;;;;;50.75;40.50;;;;;10.77;100.00;101338.00;4874124;29;49844;-65
2023/02/23 19:24:52;;;;;;;;;68.25;53.50;;;;;10.77;100.00;101334.47;4874040;29;50329;-79
2023/02/23 19:27:17;;;;;;;;;63.25;51.75;;;;;10.68;100.00;101324.59;4878032;29;49939;-67
2023/02/23 19:29:44;;;;;;;;;67.50;52.50;;;;;10.66;100.00;101318.41;4892215;29;50523;-67
2023/02/23 19:32:10;;;;;;;;;38.25;34.50;;;;;10.59;100.00;101316.44;4877610;29;49689;-68
2023/02/23 19:34:36;;;;;;;;;31.75;29.50;;;;;10.53;100.00;101308.41;4874501;29;49892;-82
2023/02/23 19:37:02;;;;;;;;;32.25;29.50;;;;;10.47;100.00;101293.34;4877252;29;49964;-71
2023/02/23 19:39:28;;;;;;;;;52.75;44.75;;;;;10.54;100.00;101311.06;4874501;29;52354;-69
2023/02/23 19:41:54;;;;;;;;;54.50;43.00;;;;;10.44;100.00;101301.16;4892117;29;50061;-69
2023/02/23 19:44:19;;;;;;;;;43.75;38.00;;;;;10.52;100.00;101325.00;4878273;29;50068;-70
2023/02/23 19:46:45;;;;;;;;;45.50;35.75;;;;;10.36;100.00;101307.00;4887967;29;50411;-74
2023/02/23 19:49:11;;;;;;;;;38.50;34.75;;;;;10.49;100.00;101317.00;4891915;29;50053;-70
2023/02/23 19:51:37;;;;;;;;;47.00;35.75;;;;;10.26;100.00;101290.09;4891743;29;49808;-69
2023/02/23 19:54:03;;;;;;;;;66.25;53.25;;;;;10.34;100.00;101308.69;4890216;29;49946;-70